Time;durP1;ratioP1;P1;durP2;ratioP2;P2;SDS_P1;SDS_P2;PMS_P1;PMS_P2;Temp;Humidity;BMP_temperature;BMP_pressure;BME280_temperature;BME280_humidity;BME280_pressure;Samples;Min_cycle;Max_cycle;Signal;HPM_P1;HPM_P2
2023/12/21 00:01:05;;;;;;;3.05;0.63;;;;;;;7.87;65.30;99835.25;5020818;28;20536;-38
2023/12/21 00:03:31;;;;;;;3.55;0.60;;;;;;;7.63;66.21;99822.72;5022599;28;20044;-39
2023/12/21 00:05:56;;;;;;;3.80;1.35;;;;;;;7.57;66.52;99820.44;5024133;28;20029;-40
2023/12/21 00:08:21;;;;;;;1.40;0.68;;;;;;;7.47;66.06;99819.31;5024355;28;20099;-40
2023/12/21 00:10:47;;;;;;;5.15;0.80;;;;;;;7.45;66.56;99808.94;5025625;28;20039;-39
2023/12/21 00:13:12;;;;;;;4.53;0.60;;;;;;;7.54;65.83;99810.16;5022535;28;20470;-40
2023/12/21 00:15:37;;;;;;;2.90;0.60;;;;;;;7.05;66.85;99805.19;5019992;28;20133;-40
2023/12/21 00:18:03;;;;;;;1.98;0.60;;;;;;;6.98;65.87;99808.19;5023682;28;20021;-39
2023/12/21 00:20:28;;;;;;;3.08;0.85;;;;;;;7.17;66.00;99787.03;5023836;28;20400;-40
2023/12/21 00:22:54;;;;;;;5.60;0.75;;;;;;;7.48;65.75;99781.75;5022388;28;21371;-40
2023/12/21 00:25:19;;;;;;;2.40;0.70;;;;;;;7.21;66.21;99784.22;5021411;28;20172;-40
2023/12/21 00:27:44;;;;;;;4.57;0.80;;;;;;;7.13;66.42;99775.03;5023607;28;20170;-40
2023/12/21 00:30:10;;;;;;;0.68;0.45;;;;;;;7.13;66.72;99774.22;5022105;28;20042;-40
2023/12/21 00:32:35;;;;;;;1.65;0.40;;;;;;;7.31;66.39;99773.13;5024452;28;20033;-39
2023/12/21 00:35:01;;;;;;;2.88;0.50;;;;;;;7.36;66.39;99774.59;5021130;28;20025;-40
2023/12/21 00:37:26;;;;;;;4.38;0.70;;;;;;;7.23;65.40;99759.66;5017492;28;20051;-39
2023/12/21 00:39:52;;;;;;;3.15;0.40;;;;;;;7.21;66.20;99758.88;5022594;28;20542;-41
2023/12/21 00:42:17;;;;;;;1.13;0.40;;;;;;;7.23;65.98;99743.13;5020163;28;20044;-38
2023/12/21 00:44:42;;;;;;;1.00;0.40;;;;;;;7.08;65.92;99745.72;5021829;28;20042;-41
2023/12/21 00:47:08;;;;;;;0.57;0.35;;;;;;;6.94;66.39;99743.06;5022618;28;20159;-40
2023/12/21 00:49:33;;;;;;;1.17;0.38;;;;;;;6.99;66.05;99733.16;5013163;28;20546;-39
2023/12/21 00:51:59;;;;;;;2.95;0.35;;;;;;;6.90;66.22;99733.72;5022477;28;20076;-39
2023/12/21 00:54:24;;;;;;;0.20;0.20;;;;;;;6.63;65.78;99724.75;5025448;28;20040;-40
2023/12/21 00:56:49;;;;;;;3.33;0.60;;;;;;;6.75;66.46;99717.13;5022878;28;20132;-39
2023/12/21 00:59:15;;;;;;;1.02;0.45;;;;;;;6.81;66.31;99701.09;5012235;28;20030;-41
2023/12/21 01:01:41;;;;;;;0.20;0.20;;;;;;;6.89;66.04;99688.41;5005312;28;20392;-41
2023/12/21 01:04:06;;;;;;;0.32;0.28;;;;;;;6.91;66.21;99675.25;5008870;28;20030;-41
2023/12/21 01:06:31;;;;;;;1.17;0.57;;;;;;;6.51;66.29;99667.97;5021557;28;20136;-41
2023/12/21 01:08:57;;;;;;;1.77;0.30;;;;;;;7.02;65.88;99667.59;5020077;28;20037;-41
2023/12/21 01:11:22;;;;;;;0.50;0.30;;;;;;;6.97;65.84;99659.16;5019618;28;20384;-40
2023/12/21 01:13:47;;;;;;;1.23;0.55;;;;;;;6.91;66.44;99649.91;5020796;28;20132;-41
2023/12/21 01:16:15;;;;;;;1.98;0.55;;;;;;;7.10;66.14;99640.97;5024716;28;20041;-40
2023/12/21 01:18:41;;;;;;;0.73;0.40;;;;;;;7.21;65.57;99635.09;5022716;28;20034;-41
2023/12/21 01:21:07;;;;;;;1.33;0.40;;;;;;;7.34;65.15;99628.16;5021200;28;20032;-39
2023/12/21 01:23:32;;;;;;;0.40;0.30;;;;;;;7.38;65.08;99623.56;5024482;28;20038;-40
2023/12/21 01:25:57;;;;;;;0.95;0.40;;;;;;;7.62;65.14;99614.19;5025174;28;20033;-42
2023/12/21 01:28:23;;;;;;;0.70;0.50;;;;;;;7.71;64.50;99606.66;5022341;28;20046;-40
2023/12/21 01:30:48;;;;;;;0.47;0.32;;;;;;;7.89;64.32;99620.34;5024249;28;20042;-41
2023/12/21 01:33:13;;;;;;;1.17;0.30;;;;;;;8.05;64.17;99609.75;5019617;28;20040;-40
2023/12/21 01:35:39;;;;;;;0.88;0.40;;;;;;;8.11;63.84;99608.50;5025177;28;20108;-39
2023/12/21 01:38:04;;;;;;;1.48;0.43;;;;;;;8.26;63.50;99596.13;5021087;28;20064;-42
2023/12/21 01:40:29;;;;;;;0.60;0.40;;;;;;;8.38;63.29;99583.06;5021246;28;20126;-40
2023/12/21 01:42:55;;;;;;;0.77;0.28;;;;;;;8.52;63.11;99578.72;5023786;28;20395;-40
2023/12/21 01:45:20;;;;;;;2.63;0.95;;;;;;;8.64;62.94;99569.16;5021874;28;20044;-40
2023/12/21 01:47:46;;;;;;;2.55;0.65;;;;;;;8.72;62.72;99563.41;5026278;28;20033;-40
2023/12/21 01:50:14;;;;;;;0.40;0.30;;;;;;;8.70;62.39;99558.25;5027601;28;20032;-40
2023/12/21 01:52:40;;;;;;;17.17;7.00;;;;;;;8.73;62.77;99541.47;5027336;28;20095;-39
2023/12/21 01:55:08;;;;;;;10.82;4.57;;;;;;;8.82;62.45;99536.44;5027962;28;20451;-40
2023/12/21 01:57:34;;;;;;;2.58;1.27;;;;;;;8.89;62.29;99536.00;5019407;28;20073;-40
2023/12/21 02:00:01;;;;;;;0.82;0.40;;;;;;;8.91;62.44;99523.59;5025730;28;20060;-39
2023/12/21 02:02:29;;;;;;;2.15;0.70;;;;;;;8.96;62.53;99521.50;5026094;28;20036;-40
2023/12/21 02:04:55;;;;;;;0.40;0.30;;;;;;;8.98;62.32;99524.88;5027282;28;20146;-40
2023/12/21 02:07:20;;;;;;;0.90;0.43;;;;;;;9.02;62.08;99514.97;5025656;28;20124;-39
2023/12/21 02:09:45;;;;;;;0.75;0.55;;;;;;;9.08;62.12;99498.78;5026224;28;20116;-40
2023/12/21 02:12:11;;;;;;;3.00;0.40;;;;;;;9.10;62.05;99497.75;5026000;28;20570;-40
2023/12/21 02:14:36;;;;;;;0.50;0.40;;;;;;;9.11;61.91;99488.94;5025442;28;20043;-40
2023/12/21 02:17:15;;;;;;;2.20;0.32;;;;;;;9.19;61.91;99483.13;5023175;28;20121;-38
2023/12/21 02:19:41;;;;;;;0.20;0.20;;;;;;;9.17;61.76;99471.91;5026805;28;20033;-39
2023/12/21 02:22:07;;;;;;;0.30;0.30;;;;;;;9.14;61.77;99462.47;5025463;28;20114;-41
2023/12/21 02:24:33;;;;;;;0.35;0.20;;;;;;;9.15;61.65;99453.63;5031117;28;20088;-39
2023/12/21 02:27:00;;;;;;;2.17;0.30;;;;;;;9.13;61.60;99452.91;5026296;28;20461;-39
2023/12/21 02:29:25;;;;;;;0.63;0.20;;;;;;;9.17;61.75;99429.06;5028160;28;20043;-39
2023/12/21 02:31:51;;;;;;;0.35;0.30;;;;;;;9.21;61.96;99420.00;5028775;28;20200;-40
2023/12/21 02:34:16;;;;;;;0.65;0.35;;;;;;;9.13;61.62;99412.69;5022840;28;20060;-41
2023/12/21 02:36:42;;;;;;;1.33;0.40;;;;;;;9.12;61.66;99411.03;5028057;28;20026;-41
2023/12/21 02:39:07;;;;;;;0.50;0.50;;;;;;;9.18;61.74;99399.25;5027917;28;20383;-40
2023/12/21 02:41:32;;;;;;;2.60;0.30;;;;;;;9.21;61.89;99394.63;5024541;28;20048;-41
2023/12/21 02:43:58;;;;;;;0.70;0.40;;;;;;;9.22;61.84;99398.06;5026502;28;20099;-40
2023/12/21 02:46:27;;;;;;;1.58;0.50;;;;;;;9.25;61.97;99389.97;5028614;28;20567;-39
2023/12/21 02:48:53;;;;;;;1.60;0.88;;;;;;;9.25;61.84;99387.34;5037122;28;20396;-39
2023/12/21 02:51:18;;;;;;;2.90;0.80;;;;;;;9.29;61.87;99375.69;5037997;28;20049;-39
2023/12/21 02:53:44;;;;;;;1.02;0.70;;;;;;;9.33;61.87;99373.66;5032463;28;20392;-39
2023/12/21 02:56:09;;;;;;;1.00;0.50;;;;;;;9.36;61.70;99365.56;5030669;28;20060;-42
2023/12/21 02:58:35;;;;;;;1.40;0.70;;;;;;;9.33;61.47;99365.78;5023339;28;20035;-39
2023/12/21 03:01:01;;;;;;;1.15;0.73;;;;;;;9.35;61.66;99363.88;5024622;28;20048;-39
2023/12/21 03:03:26;;;;;;;1.20;0.60;;;;;;;9.39;61.73;99360.06;5023316;28;20121;-39
2023/12/21 03:05:52;;;;;;;1.25;0.73;;;;;;;9.41;61.67;99343.25;5025584;28;20037;-40
2023/12/21 03:08:17;;;;;;;1.65;0.57;;;;;;;9.42;61.60;99339.69;5029250;28;20129;-41
2023/12/21 03:10:43;;;;;;;1.63;0.80;;;;;;;9.47;61.50;99331.44;5028409;28;20030;-40
2023/12/21 03:13:08;;;;;;;0.50;0.40;;;;;;;9.49;61.42;99329.56;5025306;28;20112;-40
2023/12/21 03:15:34;;;;;;;2.08;1.10;;;;;;;9.39;61.62;99318.06;5026493;28;20068;-39
2023/12/21 03:17:59;;;;;;;1.60;0.63;;;;;;;9.36;61.67;99319.13;5027333;28;20111;-41
2023/12/21 03:20:24;;;;;;;1.85;0.52;;;;;;;9.38;61.72;99316.38;5023109;28;20084;-41
2023/12/21 03:22:50;;;;;;;2.25;1.10;;;;;;;9.33;61.73;99303.59;5025834;28;20335;-41
2023/12/21 03:25:15;;;;;;;2.63;1.10;;;;;;;9.18;62.14;99318.72;5023310;28;20030;-38
2023/12/21 03:27:40;;;;;;;1.20;0.77;;;;;;;8.88;63.11;99313.97;5024908;28;20125;-39
2023/12/21 03:30:06;;;;;;;0.73;0.40;;;;;;;8.83;63.39;99302.03;5027742;28;20076;-39
2023/12/21 03:32:32;;;;;;;1.73;0.80;;;;;;;8.75;63.80;99303.56;5021813;28;20033;-39
2023/12/21 03:34:57;;;;;;;1.02;0.60;;;;;;;8.78;63.95;99298.91;5023087;28;20026;-39
2023/12/21 03:37:27;;;;;;;1.02;0.60;;;;;;;8.78;64.00;99280.53;5028066;28;20037;-39
2023/12/21 03:39:54;;;;;;;1.25;0.90;;;;;;;8.79;64.19;99281.38;5025804;28;20037;-39
2023/12/21 03:42:20;;;;;;;1.80;0.93;;;;;;;8.65;64.56;99283.22;5026757;28;20025;-39
2023/12/21 03:44:45;;;;;;;3.10;1.50;;;;;;;8.47;65.44;99285.38;5026631;28;20561;-39
2023/12/21 03:47:10;;;;;;;1.35;0.77;;;;;;;8.62;65.15;99282.63;5028827;28;20041;-39
2023/12/21 03:49:36;;;;;;;2.38;1.00;;;;;;;8.43;65.80;99293.56;5027876;28;20037;-39
2023/12/21 03:52:01;;;;;;;1.75;1.05;;;;;;;8.58;65.63;99286.41;5027501;28;20044;-39
2023/12/21 03:54:26;;;;;;;1.38;0.85;;;;;;;8.58;65.69;99286.41;5019445;28;20201;-39
2023/12/21 03:56:52;;;;;;;1.65;0.88;;;;;;;8.61;65.83;99283.56;5024431;28;20057;-39
2023/12/21 03:59:17;;;;;;;1.55;0.80;;;;;;;8.64;65.67;99278.09;5025940;28;20543;-39
2023/12/21 04:01:42;;;;;;;0.70;0.60;;;;;;;8.70;65.64;99275.00;5029002;28;20037;-39
2023/12/21 04:04:08;;;;;;;1.17;0.70;;;;;;;8.55;66.40;99277.00;5024446;28;20033;-39
2023/12/21 04:06:33;;;;;;;0.70;0.40;;;;;;;8.52;66.98;99275.44;5024194;28;20892;-39
2023/12/21 04:08:58;;;;;;;0.70;0.43;;;;;;;8.61;66.88;99271.31;5022408;28;20041;-39
2023/12/21 04:11:24;;;;;;;2.40;0.80;;;;;;;8.69;66.67;99270.75;5023353;28;20065;-39
2023/12/21 04:13:50;;;;;;;1.00;0.70;;;;;;;8.73;66.44;99277.41;5013930;28;20037;-40
2023/12/21 04:16:15;;;;;;;1.52;0.60;;;;;;;8.65;66.71;99277.16;5025448;28;20036;-40
2023/12/21 04:18:41;;;;;;;1.45;0.75;;;;;;;8.57;66.96;99269.00;5022583;28;20168;-40
2023/12/21 04:21:07;;;;;;;3.35;1.27;;;;;;;8.50;67.05;99271.22;5011442;28;20033;-40
2023/12/21 04:23:33;;;;;;;2.45;0.90;;;;;;;8.61;67.33;99260.81;5023895;28;20021;-39
2023/12/21 04:25:58;;;;;;;1.48;0.75;;;;;;;8.70;66.75;99261.91;5022103;28;20580;-40
2023/12/21 04:28:24;;;;;;;1.60;0.75;;;;;;;8.65;67.15;99264.03;5023051;28;20040;-39
2023/12/21 04:30:49;;;;;;;3.08;1.30;;;;;;;8.85;66.50;99262.56;5025982;28;20060;-39
2023/12/21 04:33:16;;;;;;;1.92;0.90;;;;;;;8.88;66.32;99261.50;5024371;28;20037;-39
2023/12/21 04:35:44;;;;;;;1.23;0.68;;;;;;;9.04;65.93;99256.78;5018674;28;20041;-39
2023/12/21 04:38:12;;;;;;;2.17;1.02;;;;;;;9.04;66.01;99250.72;5017824;28;20034;-39
2023/12/21 04:40:38;;;;;;;1.33;0.82;;;;;;;9.10;65.72;99251.06;5023239;28;20075;-40
2023/12/21 04:43:06;;;;;;;3.10;0.75;;;;;;;9.01;66.12;99246.50;5024520;28;20108;-40
2023/12/21 04:45:31;;;;;;;0.98;0.50;;;;;;;8.93;66.25;99248.88;5021806;28;20037;-40
2023/12/21 04:47:56;;;;;;;3.60;0.30;;;;;;;8.90;66.64;99241.22;5024323;28;20053;-39
2023/12/21 04:50:22;;;;;;;2.13;0.70;;;;;;;8.83;67.02;99239.09;5023790;28;20496;-41
2023/12/21 04:52:47;;;;;;;1.65;0.80;;;;;;;8.89;66.65;99224.66;5028198;28;20064;-39
2023/12/21 04:55:15;;;;;;;1.88;0.77;;;;;;;8.90;66.70;99222.88;5026379;28;20033;-40
2023/12/21 04:57:40;;;;;;;2.83;1.00;;;;;;;8.87;67.03;99215.22;5023141;28;20024;-39
2023/12/21 05:00:07;;;;;;;2.15;1.00;;;;;;;8.94;66.77;99229.56;5018367;28;20041;-40
2023/12/21 05:02:33;;;;;;;1.40;0.70;;;;;;;8.94;66.76;99225.16;5024671;28;20499;-40
2023/12/21 05:04:58;;;;;;;1.75;0.93;;;;;;;9.05;66.65;99226.16;5030020;28;20041;-42
2023/12/21 05:07:24;;;;;;;2.03;1.10;;;;;;;9.06;66.51;99227.81;5028274;28;20144;-39
2023/12/21 05:09:49;;;;;;;1.10;0.60;;;;;;;9.15;66.29;99216.59;5021350;28;20037;-39
2023/12/21 05:12:14;;;;;;;2.17;1.00;;;;;;;9.30;65.89;99220.69;5025335;28;20038;-41
2023/12/21 05:14:40;;;;;;;2.00;0.65;;;;;;;9.28;65.71;99219.97;5024342;28;20026;-40
2023/12/21 05:17:05;;;;;;;2.42;0.98;;;;;;;9.44;65.25;99211.75;5015511;28;20041;-40
2023/12/21 05:19:31;;;;;;;1.95;0.80;;;;;;;9.48;65.31;99216.75;5023262;28;20035;-40
2023/12/21 05:21:57;;;;;;;1.30;0.65;;;;;;;9.54;64.98;99209.22;5018408;28;20401;-40
2023/12/21 05:24:22;;;;;;;3.30;1.25;;;;;;;9.63;64.77;99212.94;5024081;28;20120;-39
2023/12/21 05:26:47;;;;;;;2.22;1.23;;;;;;;9.69;64.57;99198.47;5022093;28;20040;-40
2023/12/21 05:29:13;;;;;;;6.10;2.78;;;;;;;9.71;64.43;99196.56;5026234;28;20049;-39
2023/12/21 05:31:38;;;;;;;4.28;2.28;;;;;;;9.74;64.26;99191.06;5023398;28;20033;-41
2023/12/21 05:34:04;;;;;;;3.15;1.80;;;;;;;9.74;64.23;99183.19;5027328;28;20029;-40
2023/12/21 05:36:30;;;;;;;2.47;1.27;;;;;;;9.73;64.33;99176.28;5021962;28;20113;-41
2023/12/21 05:38:55;;;;;;;3.67;1.40;;;;;;;9.80;64.23;99179.25;5016266;28;20069;-41
2023/12/21 05:41:20;;;;;;;3.40;1.27;;;;;;;9.88;64.03;99176.84;5021493;28;20500;-41
2023/12/21 05:43:46;;;;;;;3.30;1.40;;;;;;;9.93;63.95;99166.78;5024274;28;20036;-40
2023/12/21 05:46:11;;;;;;;2.58;1.20;;;;;;;10.00;63.71;99154.84;5029139;28;20523;-39
2023/12/21 05:48:37;;;;;;;2.33;0.50;;;;;;;10.06;63.62;99143.81;5027154;28;20040;-39
2023/12/21 05:51:03;;;;;;;1.73;1.05;;;;;;;10.10;63.41;99140.94;5022538;28;20037;-40
2023/12/21 05:53:30;;;;;;;2.25;1.27;;;;;;;10.13;63.42;99149.44;5027980;28;20026;-41
2023/12/21 05:55:56;;;;;;;3.30;1.20;;;;;;;10.17;63.21;99148.22;5028515;28;20525;-41
2023/12/21 05:58:21;;;;;;;2.78;1.33;;;;;;;10.16;63.09;99138.66;5017430;28;20044;-40
2023/12/21 06:00:47;;;;;;;3.53;1.17;;;;;;;10.16;63.10;99128.13;5021529;28;20033;-39
2023/12/21 06:03:12;;;;;;;1.90;0.95;;;;;;;10.20;63.12;99128.75;5023965;28;20117;-40
2023/12/21 06:05:37;;;;;;;2.85;1.27;;;;;;;10.22;63.21;99117.13;5011009;28;20107;-40
2023/12/21 06:08:03;;;;;;;5.10;2.30;;;;;;;10.23;62.90;99117.94;5031002;28;20030;-39
2023/12/21 06:10:28;;;;;;;6.35;2.90;;;;;;;10.26;62.93;99112.44;5026048;28;20404;-41
2023/12/21 06:12:54;;;;;;;6.05;2.72;;;;;;;10.29;63.03;99100.84;5025389;28;20065;-40
2023/12/21 06:15:19;;;;;;;3.97;1.63;;;;;;;10.27;62.79;99092.28;5018499;28;20064;-40
2023/12/21 06:17:45;;;;;;;3.78;1.60;;;;;;;10.29;63.02;99085.91;5028579;28;20033;-41
2023/12/21 06:20:10;;;;;;;3.58;1.45;;;;;;;10.27;62.81;99087.81;5029691;28;20072;-41
2023/12/21 06:22:36;;;;;;;2.78;1.42;;;;;;;10.22;62.97;99079.47;5029845;28;20037;-40
2023/12/21 06:25:01;;;;;;;2.13;1.00;;;;;;;10.21;63.09;99075.19;5026086;28;20041;-40
2023/12/21 06:27:27;;;;;;;2.15;1.20;;;;;;;10.23;62.97;99081.16;5025734;28;20132;-41
2023/12/21 06:29:52;;;;;;;3.65;1.65;;;;;;;10.23;63.08;99075.91;5027876;28;20040;-41
2023/12/21 06:32:17;;;;;;;3.40;2.10;;;;;;;10.23;62.86;99073.25;5024602;28;20087;-39
2023/12/21 06:34:43;;;;;;;9.82;3.13;;;;;;;10.28;63.00;99062.41;5019058;28;20495;-40
2023/12/21 06:37:08;;;;;;;5.13;1.75;;;;;;;10.19;62.94;99054.28;5018197;28;20361;-39
2023/12/21 06:39:34;;;;;;;3.97;1.98;;;;;;;10.22;62.90;99042.69;5023768;28;20022;-38
2023/12/21 06:42:00;;;;;;;5.68;2.80;;;;;;;10.20;63.02;99047.25;5010815;28;20026;-40
2023/12/21 06:44:26;;;;;;;3.38;1.55;;;;;;;10.17;63.16;99039.63;5009939;28;20116;-40
2023/12/21 06:46:51;;;;;;;4.03;2.00;;;;;;;10.16;63.31;99036.16;5011893;28;20037;-39
2023/12/21 06:49:17;;;;;;;5.72;2.10;;;;;;;10.16;63.45;99027.44;5015607;28;20045;-40
2023/12/21 06:51:44;;;;;;;4.68;2.40;;;;;;;10.09;63.85;99021.88;5026369;28;20029;-40
2023/12/21 06:54:10;;;;;;;5.57;2.30;;;;;;;9.90;65.92;99006.81;5025131;28;20128;-39
2023/12/21 06:56:36;;;;;;;2.42;0.90;;;;;;;9.79;67.42;99006.84;5018685;28;20121;-40
2023/12/21 06:59:02;;;;;;;1.88;0.73;;;;;;;9.70;69.24;99000.53;5014391;28;20647;-40
2023/12/21 07:01:28;;;;;;;0.90;0.50;;;;;;;9.75;70.21;98993.97;5016277;28;20018;-40
2023/12/21 07:03:54;;;;;;;1.05;0.65;;;;;;;9.81;70.68;98979.50;5019996;28;20389;-43
2023/12/21 07:06:20;;;;;;;0.85;0.43;;;;;;;9.79;71.41;98976.16;5025410;28;20037;-41
2023/12/21 07:08:46;;;;;;;0.95;0.40;;;;;;;9.76;71.87;98977.22;5018654;28;20034;-41
2023/12/21 07:11:12;;;;;;;1.02;0.40;;;;;;;10.02;71.37;98962.88;5024266;28;20538;-41
2023/12/21 07:13:37;;;;;;;0.40;0.30;;;;;;;10.14;70.64;98945.25;5018752;28;20042;-42
2023/12/21 07:16:03;;;;;;;0.80;0.40;;;;;;;10.03;71.88;98944.38;5022709;28;20037;-41
2023/12/21 07:18:28;;;;;;;0.47;0.30;;;;;;;10.21;71.94;98930.63;5026445;28;20108;-42
2023/12/21 07:20:54;;;;;;;0.35;0.20;;;;;;;10.27;70.83;98918.78;5018232;28;20044;-41
2023/12/21 07:23:19;;;;;;;1.13;0.50;;;;;;;10.34;71.79;98925.16;5024089;28;20532;-42
2023/12/21 07:25:45;;;;;;;2.75;1.42;;;;;;;10.52;70.90;98902.56;5025029;28;20025;-41
2023/12/21 07:28:10;;;;;;;1.75;0.90;;;;;;;10.52;71.45;98901.72;5021693;28;20060;-42
2023/12/21 07:30:35;;;;;;;1.27;0.60;;;;;;;10.65;71.00;98902.34;5007017;28;20079;-41
2023/12/21 07:33:01;;;;;;;2.80;0.80;;;;;;;10.60;71.18;98888.75;5024493;28;20499;-43
2023/12/21 07:35:26;;;;;;;2.03;0.93;;;;;;;10.61;70.68;98886.94;5020608;28;20021;-42
2023/12/21 07:37:52;;;;;;;1.20;0.32;;;;;;;10.55;71.80;98880.41;5025694;28;20037;-41
2023/12/21 07:40:17;;;;;;;1.10;0.43;;;;;;;10.61;71.36;98868.53;5024010;28;20116;-42
2023/12/21 07:42:42;;;;;;;1.02;0.50;;;;;;;10.63;71.84;98866.59;5025886;28;20041;-40
2023/12/21 07:45:08;;;;;;;1.30;0.50;;;;;;;10.52;71.20;98846.50;5021455;28;20399;-40
2023/12/21 07:47:33;;;;;;;1.08;0.45;;;;;;;10.64;71.41;98834.91;5020583;28;20045;-41
2023/12/21 07:49:59;;;;;;;0.80;0.40;;;;;;;10.72;71.54;98828.97;5015839;28;20033;-43
2023/12/21 07:52:25;;;;;;;1.63;0.40;;;;;;;10.64;71.93;98820.91;5008721;28;20859;-41
2023/12/21 07:54:51;;;;;;;0.20;0.20;;;;;;;10.56;71.68;98812.88;5022587;28;20033;-41
2023/12/21 07:57:16;;;;;;;0.38;0.22;;;;;;;10.66;72.05;98811.91;5029686;28;20032;-40
2023/12/21 07:59:41;;;;;;;0.73;0.32;;;;;;;10.76;71.28;98787.44;5022664;28;20116;-41
2023/12/21 08:02:07;;;;;;;0.20;0.20;;;;;;;10.71;71.91;98784.38;5022846;28;20041;-40
2023/12/21 08:04:37;;;;;;;2.67;0.60;;;;;;;10.71;71.60;98784.38;5023263;28;20556;-40
2023/12/21 08:07:05;;;;;;;0.70;0.30;;;;;;;10.83;71.69;98764.84;5036734;28;20037;-40
2023/12/21 08:09:30;;;;;;;0.40;0.30;;;;;;;10.82;71.73;98760.56;5021473;28;20033;-40
2023/12/21 08:11:56;;;;;;;1.35;0.52;;;;;;;10.74;71.78;98753.34;5022917;28;20037;-40
2023/12/21 08:14:21;;;;;;;1.25;0.65;;;;;;;10.81;70.99;98749.22;5022454;28;20068;-40
2023/12/21 08:16:46;;;;;;;2.10;1.00;;;;;;;10.82;71.41;98735.09;5027227;28;20117;-38
2023/12/21 08:19:15;;;;;;;4.30;0.95;;;;;;;10.82;72.16;98726.34;5025344;28;20477;-40
2023/12/21 08:21:40;;;;;;;1.75;0.85;;;;;;;10.81;71.54;98715.00;5024713;28;20056;-40
2023/12/21 08:24:06;;;;;;;1.52;0.50;;;;;;;10.82;71.65;98718.47;5019009;28;20384;-40
2023/12/21 08:26:33;;;;;;;0.43;0.30;;;;;;;10.76;71.89;98703.25;5023970;28;20029;-40
2023/12/21 08:29:02;;;;;;;0.52;0.40;;;;;;;10.89;71.84;98705.59;5023058;28;20031;-40
2023/12/21 08:31:28;;;;;;;1.00;0.45;;;;;;;10.80;72.13;98687.03;5025449;28;20061;-40
2023/12/21 08:33:54;;;;;;;3.25;0.88;;;;;;;10.72;72.42;98686.06;5024955;28;20500;-40
2023/12/21 08:36:20;;;;;;;3.55;1.08;;;;;;;10.93;72.00;98673.59;5024318;28;20041;-42
2023/12/21 08:38:45;;;;;;;3.92;1.35;;;;;;;10.89;71.71;98656.44;5030300;28;20026;-41
2023/12/21 08:41:13;;;;;;;1.75;0.90;;;;;;;10.92;71.19;98653.50;5023478;28;20033;-41
2023/12/21 08:43:40;;;;;;;1.85;1.20;;;;;;;10.84;72.09;98648.13;5024496;28;20052;-41
2023/12/21 08:46:09;;;;;;;1.67;0.70;;;;;;;10.93;71.48;98631.50;5028493;28;20033;-40
2023/12/21 08:48:37;;;;;;;1.13;0.57;;;;;;;10.94;71.97;98633.16;5025246;28;20150;-42
2023/12/21 08:51:02;;;;;;;1.35;0.50;;;;;;;10.91;72.26;98612.38;5019038;28;20141;-41
2023/12/21 08:53:30;;;;;;;0.77;0.50;;;;;;;10.87;71.83;98616.25;5027691;28;20496;-42
2023/12/21 08:55:55;;;;;;;2.30;0.40;;;;;;;10.82;72.21;98605.34;5025395;28;20084;-42
2023/12/21 08:58:23;;;;;;;1.27;0.68;;;;;;;10.90;72.32;98589.69;5025216;28;20476;-40
2023/12/21 09:00:48;;;;;;;1.05;0.40;;;;;;;10.97;72.08;98584.66;5029197;28;20495;-41
2023/12/21 09:03:16;;;;;;;1.50;0.60;;;;;;;11.01;71.98;98579.94;5022196;28;20080;-42
2023/12/21 09:05:41;;;;;;;1.20;0.77;;;;;;;10.88;72.26;98581.09;5019587;28;20038;-43
2023/12/21 09:08:07;;;;;;;1.52;0.73;;;;;;;10.85;72.12;98565.59;5012725;28;20048;-40
2023/12/21 09:10:32;;;;;;;1.67;0.85;;;;;;;10.90;72.20;98554.63;5024778;28;20025;-39
2023/12/21 09:12:57;;;;;;;0.80;0.50;;;;;;;10.38;73.01;98558.53;5030759;28;20036;-41
2023/12/21 09:15:26;;;;;;;1.42;0.60;;;;;;;10.42;72.97;98543.28;5030308;28;20129;-39
2023/12/21 09:17:53;;;;;;;1.13;0.70;;;;;;;10.69;72.61;98542.53;5030001;28;20025;-40
2023/12/21 09:20:18;;;;;;;1.88;1.23;;;;;;;10.50;72.51;98525.03;5027768;28;20029;-41
2023/12/21 09:22:45;;;;;;;2.63;1.25;;;;;;;10.82;72.12;98523.78;5020076;28;20033;-41
2023/12/21 09:25:10;;;;;;;1.77;0.90;;;;;;;10.64;72.11;98511.41;5026141;28;20044;-43
2023/12/21 09:27:36;;;;;;;2.03;0.90;;;;;;;10.80;71.89;98507.34;5029743;28;20033;-41
2023/12/21 09:30:05;;;;;;;1.33;0.90;;;;;;;10.96;71.48;98499.66;5017406;28;20959;-41
2023/12/21 09:32:31;;;;;;;3.35;1.10;;;;;;;10.88;71.60;98491.63;5022051;28;20433;-42
2023/12/21 09:34:56;;;;;;;1.73;0.90;;;;;;;10.86;71.49;98477.78;5025426;28;20037;-42
2023/12/21 09:37:23;;;;;;;5.40;2.15;;;;;;;10.75;71.84;98459.59;5029432;28;20057;-41
2023/12/21 09:39:49;;;;;;;2.40;1.10;;;;;;;10.69;71.90;98458.38;5028330;28;20033;-41
2023/12/21 09:42:15;;;;;;;1.25;0.80;;;;;;;10.74;72.16;98442.97;5027615;28;20557;-42
2023/12/21 09:44:45;;;;;;;1.63;0.60;;;;;;;10.64;71.76;98436.94;5031624;28;20033;-42
2023/12/21 09:47:13;;;;;;;1.40;0.88;;;;;;;10.74;72.14;98426.38;5030955;28;20541;-42
2023/12/21 09:49:41;;;;;;;0.70;0.43;;;;;;;10.57;72.12;98418.28;5030842;28;20112;-41
2023/12/21 09:52:08;;;;;;;1.23;0.57;;;;;;;10.61;72.56;98411.75;5024263;28;20403;-42
2023/12/21 09:54:35;;;;;;;0.90;0.55;;;;;;;10.75;72.12;98383.31;5032338;28;20023;-40
2023/12/21 09:57:03;;;;;;;1.50;0.40;;;;;;;10.57;72.41;98391.97;5029485;28;20108;-41
2023/12/21 09:59:33;;;;;;;1.23;0.43;;;;;;;10.58;72.01;98380.47;5027138;28;20086;-42
2023/12/21 10:01:59;;;;;;;0.65;0.40;;;;;;;10.48;72.57;98364.75;5039451;28;20041;-42
2023/12/21 10:04:25;;;;;;;1.85;0.40;;;;;;;10.56;71.98;98365.84;5028394;28;20120;-42
2023/12/21 10:06:50;;;;;;;0.40;0.30;;;;;;;10.62;72.39;98333.69;5028600;28;20033;-40
2023/12/21 10:09:17;;;;;;;5.10;0.70;;;;;;;10.66;72.18;98329.78;5029458;28;20036;-40
2023/12/21 10:11:43;;;;;;;3.10;1.23;;;;;;;10.58;72.36;98306.84;5028247;28;20022;-43
2023/12/21 10:14:16;;;;;;;1.60;0.60;;;;;;;10.82;71.96;98305.44;5028674;28;20095;-43
2023/12/21 10:16:41;;;;;;;1.33;0.50;;;;;;;10.66;71.87;98299.03;5027102;28;20029;-42
2023/12/21 10:19:13;;;;;;;1.38;0.60;;;;;;;10.55;72.19;98280.84;5030303;28;20032;-43
2023/12/21 10:21:40;;;;;;;0.63;0.38;;;;;;;10.73;71.76;98274.78;5012715;28;20112;-43
2023/12/21 10:24:06;;;;;;;0.30;0.30;;;;;;;10.63;71.92;98267.81;5017992;28;20033;-40
2023/12/21 10:26:32;;;;;;;0.30;0.30;;;;;;;10.68;71.67;98255.00;5015719;28;21343;-40
2023/12/21 10:28:58;;;;;;;0.73;0.40;;;;;;;10.52;72.25;98233.81;5022921;28;20037;-41
2023/12/21 10:31:25;;;;;;;0.30;0.20;;;;;;;10.82;71.50;98234.41;5024616;28;20064;-40
2023/12/21 10:33:51;;;;;;;0.40;0.30;;;;;;;10.77;71.49;98223.53;5020103;28;20037;-43
2023/12/21 10:36:16;;;;;;;0.43;0.30;;;;;;;10.74;71.46;98215.94;5020601;28;20025;-43
2023/12/21 10:38:44;;;;;;;0.30;0.25;;;;;;;10.88;71.11;98204.06;5014932;28;20033;-38
2023/12/21 10:41:10;;;;;;;0.30;0.20;;;;;;;10.80;71.16;98179.31;5020408;28;20041;-40
2023/12/21 10:43:36;;;;;;;2.20;0.30;;;;;;;10.95;70.76;98179.63;5019929;28;20065;-37
2023/12/21 10:46:03;;;;;;;0.60;0.20;;;;;;;10.95;71.12;98174.34;5020681;28;20038;-39
2023/12/21 10:48:33;;;;;;;0.40;0.20;;;;;;;10.79;71.07;98166.34;5021777;28;20594;-40
2023/12/21 10:51:00;;;;;;;2.40;0.55;;;;;;;10.85;71.07;98160.44;5019153;28;20083;-38
2023/12/21 10:53:27;;;;;;;0.95;0.30;;;;;;;10.92;70.72;98148.34;5022782;28;20076;-39
2023/12/21 10:55:54;;;;;;;1.13;0.50;;;;;;;10.88;70.90;98141.72;5015986;28;20033;-39
2023/12/21 10:58:22;;;;;;;0.20;0.20;;;;;;;10.88;71.13;98127.78;5020230;28;20025;-41
2023/12/21 11:00:49;;;;;;;2.65;0.90;;;;;;;10.70;71.26;98126.00;5021565;28;20150;-40
2023/12/21 11:03:20;;;;;;;0.20;0.20;;;;;;;10.91;70.95;98112.50;5024988;28;20044;-41
2023/12/21 11:05:46;;;;;;;0.57;0.30;;;;;;;10.80;71.11;98103.03;5036903;28;20026;-41
2023/12/21 11:08:11;;;;;;;0.50;0.30;;;;;;;11.04;70.49;98092.81;5025325;28;20295;-40
2023/12/21 11:10:37;;;;;;;0.85;0.30;;;;;;;10.88;70.80;98080.41;5023822;28;20029;-40
2023/12/21 11:13:03;;;;;;;1.08;0.20;;;;;;;10.76;70.87;98083.28;5017878;28;21386;-39
2023/12/21 11:15:30;;;;;;;0.73;0.28;;;;;;;10.95;71.08;98061.22;5023132;28;20488;-42
2023/12/21 11:18:04;;;;;;;0.30;0.20;;;;;;;11.01;70.53;98069.44;5024541;28;20040;-41
2023/12/21 11:20:34;;;;;;;3.03;0.93;;;;;;;11.03;70.67;98060.44;5025530;28;20056;-41
2023/12/21 11:23:05;;;;;;;0.17;0.17;;;;;;;10.91;71.21;98041.47;5025007;28;20056;-41
2023/12/21 11:25:31;;;;;;;0.68;0.17;;;;;;;10.94;70.77;98032.41;5023774;28;20036;-42
2023/12/21 11:27:58;;;;;;;0.55;0.30;;;;;;;11.03;70.72;98030.66;5022399;28;20037;-39
2023/12/21 11:30:28;;;;;;;2.15;0.95;;;;;;;11.08;70.69;98025.75;5015094;28;20044;-41